Time;durP1;ratioP1;P1;durP2;ratioP2;P2;SDS_P1;SDS_P2;PMS_P1;PMS_P2;Temp;Humidity;BMP_temperature;BMP_pressure;BME280_temperature;BME280_humidity;BME280_pressure;Samples;Min_cycle;Max_cycle;Signal;HPM_P1;HPM_P2
2022/09/02 00:02:12;;;;;;;1.83;1.70;;;13.20;99.90;;;;;;5251045;28;20459;-48
2022/09/02 00:04:44;;;;;;;1.50;1.40;;;13.20;99.90;;;;;;5236626;28;20289;-46
2022/09/02 00:07:14;;;;;;;1.37;1.37;;;13.20;99.90;;;;;;5252318;28;20181;-47
2022/09/02 00:09:45;;;;;;;1.47;1.40;;;13.30;99.90;;;;;;5239221;28;20455;-46
2022/09/02 00:12:15;;;;;;;1.80;1.73;;;13.30;99.90;;;;;;5240782;28;20183;-45
2022/09/02 00:14:46;;;;;;;1.10;1.10;;;13.30;99.90;;;;;;5237625;28;20289;-47
2022/09/02 00:17:17;;;;;;;1.10;1.10;;;13.40;99.90;;;;;;5252912;28;20187;-48
2022/09/02 00:19:48;;;;;;;1.13;1.10;;;13.40;99.90;;;;;;5251416;28;20472;-47
2022/09/02 00:22:18;;;;;;;1.37;1.37;;;13.40;99.90;;;;;;5237789;28;20183;-46
2022/09/02 00:24:49;;;;;;;1.23;1.23;;;13.40;99.90;;;;;;5261838;28;20206;-46
2022/09/02 00:27:20;;;;;;;1.20;1.10;;;13.50;99.90;;;;;;5255560;28;20193;-45
2022/09/02 00:29:52;;;;;;;1.27;1.27;;;13.50;99.90;;;;;;5243341;28;20202;-48
2022/09/02 00:32:22;;;;;;;1.40;1.40;;;13.50;99.90;;;;;;5235966;28;20186;-46
2022/09/02 00:34:54;;;;;;;0.90;0.90;;;13.50;99.90;;;;;;5241274;28;20459;-45
2022/09/02 00:37:25;;;;;;;0.90;0.90;;;13.50;99.90;;;;;;5247756;28;20182;-46
2022/09/02 00:39:56;;;;;;;1.10;1.00;;;13.50;99.90;;;;;;5249188;28;20468;-48
2022/09/02 00:42:27;;;;;;;1.00;0.90;;;13.50;99.90;;;;;;5249790;28;20207;-48
2022/09/02 00:44:58;;;;;;;1.70;1.00;;;13.50;99.90;;;;;;5243852;28;20468;-48
2022/09/02 00:47:29;;;;;;;1.47;1.17;;;13.60;99.90;;;;;;5239819;28;20177;-48
2022/09/02 00:50:02;;;;;;;1.53;1.13;;;13.60;99.90;;;;;;5242470;28;20232;-47
2022/09/02 00:52:39;;;;;;;1.60;1.50;;;13.60;99.90;;;;;;5234845;28;20498;-47
2022/09/02 00:55:14;;;;;;;1.43;1.30;;;13.60;99.90;;;;;;5257460;28;20464;-46
2022/09/02 00:58:15;;;;;;;6.47;1.40;;;13.70;99.90;;;;;;5268721;28;20449;-47
2022/09/02 01:00:47;;;;;;;4.57;0.90;;;13.70;99.90;;;;;;5229002;28;20462;-46
2022/09/02 01:03:20;;;;;;;2.93;1.27;;;13.70;99.90;;;;;;5263182;28;20566;-46
2022/09/02 01:05:53;;;;;;;2.87;1.00;;;13.80;99.90;;;;;;5241663;28;20470;-47
2022/09/02 01:08:33;;;;;;;1.13;0.93;;;13.80;99.90;;;;;;5239002;28;20540;-46
2022/09/02 01:11:04;;;;;;;1.13;1.13;;;13.80;99.90;;;;;;5237649;28;20444;-46
2022/09/02 01:13:39;;;;;;;1.83;1.00;;;13.80;99.90;;;;;;5238239;28;20448;-46
2022/09/02 01:16:23;;;;;;;0.60;0.60;;;13.90;99.90;;;;;;5232272;28;20451;-48
2022/09/02 01:18:57;;;;;;;0.80;0.80;;;13.90;99.90;;;;;;5238466;28;20800;-46
2022/09/02 01:21:28;;;;;;;1.30;1.20;;;13.90;99.90;;;;;;5237999;28;22284;-48
2022/09/02 01:23:59;;;;;;;2.60;0.80;;;13.90;99.90;;;;;;5237380;28;20455;-49
2022/09/02 01:26:29;;;;;;;0.70;0.70;;;14.00;99.90;;;;;;5250275;28;20614;-46
2022/09/02 01:29:00;;;;;;;1.00;1.00;;;14.00;99.90;;;;;;5247321;28;20181;-46
2022/09/02 01:31:31;;;;;;;1.00;1.00;;;13.90;99.90;;;;;;5242817;28;20179;-46
2022/09/02 01:34:02;;;;;;;0.83;0.83;;;13.90;99.90;;;;;;5259631;28;20186;-46
2022/09/02 01:36:36;;;;;;;1.43;1.00;;;13.90;99.90;;;;;;5244983;28;20235;-50
2022/09/02 01:39:08;;;;;;;4.97;1.50;;;13.90;99.90;;;;;;5248609;28;20460;-48
2022/09/02 01:41:40;;;;;;;1.00;1.00;;;13.90;99.90;;;;;;5246720;28;20436;-46
2022/09/02 01:44:11;;;;;;;0.80;0.80;;;14.00;99.90;;;;;;5252791;28;20793;-46
2022/09/02 01:46:41;;;;;;;1.27;1.27;;;13.90;99.90;;;;;;5239595;28;20484;-46
2022/09/02 01:49:12;;;;;;;0.73;0.73;;;13.90;99.90;;;;;;5230143;28;20266;-46
2022/09/02 01:51:43;;;;;;;0.90;0.90;;;13.80;99.90;;;;;;5253714;28;20701;-47
2022/09/02 01:54:14;;;;;;;0.87;0.50;;;13.80;99.90;;;;;;5248168;28;20459;-46
2022/09/02 01:56:45;;;;;;;1.40;1.30;;;13.80;99.90;;;;;;5260619;28;20475;-47
2022/09/02 01:59:16;;;;;;;9.40;1.67;;;13.80;99.90;;;;;;5253544;28;20447;-48
2022/09/02 02:01:47;;;;;;;2.00;1.13;;;13.80;99.90;;;;;;5245113;28;20553;-46
2022/09/02 02:04:17;;;;;;;2.20;1.00;;;13.80;99.90;;;;;;5252247;28;20455;-46
2022/09/02 02:06:48;;;;;;;1.10;1.10;;;13.80;99.90;;;;;;5256218;28;20256;-46
2022/09/02 02:09:19;;;;;;;1.20;1.20;;;13.80;99.90;;;;;;5260687;28;20177;-49
2022/09/02 02:11:49;;;;;;;0.70;0.70;;;13.80;99.90;;;;;;5248856;28;20201;-46
2022/09/02 02:14:20;;;;;;;1.00;1.00;;;13.80;99.90;;;;;;5246136;28;20198;-45
2022/09/02 02:16:51;;;;;;;1.10;1.10;;;13.80;99.90;;;;;;5263281;28;20714;-53
2022/09/02 02:19:21;;;;;;;0.53;0.53;;;13.80;99.90;;;;;;5246134;28;20202;-48
2022/09/02 02:21:52;;;;;;;9.93;1.20;;;13.80;99.90;;;;;;5249633;28;20174;-48
2022/09/02 02:24:23;;;;;;;0.73;0.73;;;13.80;99.90;;;;;;5246349;28;20624;-46
2022/09/02 02:26:54;;;;;;;1.23;0.97;;;13.80;99.90;;;;;;5256042;28;20181;-48
2022/09/02 02:29:24;;;;;;;1.40;1.30;;;13.80;99.90;;;;;;5244841;28;20186;-46
2022/09/02 02:31:55;;;;;;;1.17;1.03;;;13.80;99.90;;;;;;5237860;28;20436;-46
2022/09/02 02:34:26;;;;;;;1.90;0.83;;;13.70;99.90;;;;;;5241845;28;20587;-47
2022/09/02 02:36:57;;;;;;;0.90;0.90;;;13.70;99.90;;;;;;5239042;28;20182;-48
2022/09/02 02:39:27;;;;;;;3.17;1.03;;;13.70;99.90;;;;;;5242369;28;20225;-47
2022/09/02 02:41:58;;;;;;;7.53;1.23;;;13.60;99.90;;;;;;5253429;28;20300;-47
2022/09/02 02:44:30;;;;;;;0.80;0.80;;;13.60;99.90;;;;;;5252780;28;20209;-47
2022/09/02 02:47:01;;;;;;;3.03;0.77;;;13.50;99.90;;;;;;5233817;28;20246;-47
2022/09/02 02:49:36;;;;;;;2.73;1.10;;;13.50;99.90;;;;;;5245951;28;20425;-47
2022/09/02 02:52:07;;;;;;;0.70;0.70;;;13.50;99.90;;;;;;5257608;28;20181;-48
2022/09/02 02:54:40;;;;;;;2.60;1.10;;;13.40;99.90;;;;;;5254206;28;20725;-50
2022/09/02 02:57:11;;;;;;;0.97;0.97;;;13.40;99.90;;;;;;5258065;28;20947;-47
2022/09/02 02:59:42;;;;;;;1.00;1.00;;;13.30;99.90;;;;;;5261448;28;20461;-49
2022/09/02 03:02:12;;;;;;;0.83;0.83;;;13.30;99.90;;;;;;5247952;28;20432;-47
2022/09/02 03:04:43;;;;;;;1.00;1.00;;;13.30;99.90;;;;;;5256410;28;20208;-50
2022/09/02 03:07:14;;;;;;;2.30;0.90;;;13.20;99.90;;;;;;5268115;28;20178;-45
2022/09/02 03:09:44;;;;;;;1.13;1.10;;;13.10;99.90;;;;;;5258042;28;20177;-48
2022/09/02 03:12:15;;;;;;;0.87;0.83;;;13.00;99.90;;;;;;5257326;28;20189;-47
2022/09/02 03:14:46;;;;;;;0.60;0.60;;;13.00;99.90;;;;;;5247465;28;20625;-47
2022/09/02 03:17:16;;;;;;;1.00;1.00;;;13.00;99.90;;;;;;5251555;28;20534;-46
2022/09/02 03:19:47;;;;;;;1.30;1.20;;;13.00;99.90;;;;;;5248593;28;20736;-47
2022/09/02 03:22:18;;;;;;;0.90;0.90;;;12.90;99.90;;;;;;5238236;28;20228;-48
2022/09/02 03:24:48;;;;;;;4.63;1.37;;;12.90;99.90;;;;;;5240184;28;20207;-46
2022/09/02 03:27:19;;;;;;;1.43;1.33;;;12.80;99.90;;;;;;5238788;28;20311;-46
2022/09/02 03:29:49;;;;;;;0.90;0.87;;;12.80;99.90;;;;;;5247074;28;20186;-46
2022/09/02 03:32:20;;;;;;;1.00;1.00;;;12.70;99.90;;;;;;5246090;28;20256;-48
2022/09/02 03:34:50;;;;;;;1.23;1.17;;;12.60;99.90;;;;;;5244401;28;20217;-50
2022/09/02 03:37:21;;;;;;;1.67;1.57;;;12.60;99.90;;;;;;5241093;28;20204;-48
2022/09/02 03:39:52;;;;;;;6.57;1.17;;;12.60;99.90;;;;;;5244280;28;20248;-45
2022/09/02 03:42:22;;;;;;;2.20;1.30;;;12.70;99.90;;;;;;5241421;28;20182;-48
2022/09/02 03:44:53;;;;;;;1.43;1.40;;;12.60;99.90;;;;;;5249187;28;20302;-47
2022/09/02 03:47:23;;;;;;;1.37;1.37;;;12.50;99.90;;;;;;5233180;28;20211;-47
2022/09/02 03:49:54;;;;;;;1.30;1.20;;;12.50;99.90;;;;;;5242754;28;20227;-47
2022/09/02 03:52:25;;;;;;;1.00;1.00;;;12.50;99.90;;;;;;5240784;28;20269;-46
2022/09/02 03:54:55;;;;;;;2.23;1.50;;;12.50;99.90;;;;;;5257786;23;20237;-48
2022/09/02 03:57:26;;;;;;;2.33;1.40;;;12.50;99.90;;;;;;5237161;28;20174;-50
2022/09/02 03:59:56;;;;;;;1.90;1.33;;;12.50;99.90;;;;;;5205831;28;20194;-49
2022/09/02 04:02:27;;;;;;;1.40;1.30;;;12.50;99.90;;;;;;5218235;28;20183;-49
2022/09/02 04:04:58;;;;;;;1.30;1.27;;;12.50;99.90;;;;;;5218503;28;20194;-50
2022/09/02 04:07:28;;;;;;;2.97;1.50;;;12.50;99.90;;;;;;5238982;28;20183;-49
2022/09/02 04:10:00;;;;;;;1.50;1.40;;;12.50;99.90;;;;;;5244942;28;20209;-49
2022/09/02 04:12:31;;;;;;;1.20;1.10;;;12.40;99.90;;;;;;5235061;28;20212;-48
2022/09/02 04:15:04;;;;;;;1.30;1.20;;;12.40;99.90;;;;;;5239629;28;20459;-50
2022/09/02 04:17:35;;;;;;;3.13;1.23;;;12.40;99.90;;;;;;5235070;28;20213;-51
2022/09/02 04:20:09;;;;;;;1.80;1.60;;;12.40;99.90;;;;;;5232570;28;20472;-52
2022/09/02 04:22:40;;;;;;;1.30;1.30;;;12.40;99.90;;;;;;5237419;28;20444;-50
2022/09/02 04:25:11;;;;;;;1.90;1.27;;;12.40;99.90;;;;;;5238730;28;20806;-49
2022/09/02 04:27:41;;;;;;;2.20;1.47;;;12.40;99.90;;;;;;5221005;28;20436;-50
2022/09/02 04:30:15;;;;;;;1.33;1.23;;;12.40;99.90;;;;;;5223583;28;20181;-49
2022/09/02 04:32:45;;;;;;;1.10;1.10;;;12.40;99.90;;;;;;5226449;28;20170;-48
2022/09/02 04:35:16;;;;;;;1.30;1.30;;;12.40;99.90;;;;;;5240187;28;20505;-49
2022/09/02 04:37:47;;;;;;;1.20;1.20;;;12.40;99.90;;;;;;5241167;28;20479;-50
2022/09/02 04:40:18;;;;;;;1.60;1.50;;;12.40;99.90;;;;;;5228100;28;20208;-50
2022/09/02 04:42:49;;;;;;;2.57;1.83;;;12.40;99.90;;;;;;5224479;28;20428;-50
2022/09/02 04:45:20;;;;;;;5.17;1.40;;;12.40;99.90;;;;;;5239251;28;20627;-50
2022/09/02 04:47:51;;;;;;;3.10;1.60;;;12.50;99.90;;;;;;5235257;28;20512;-49
2022/09/02 04:50:21;;;;;;;1.73;1.60;;;12.50;99.90;;;;;;5228746;28;21862;-49
2022/09/02 04:52:52;;;;;;;1.13;1.13;;;12.50;99.90;;;;;;5238334;28;20854;-50
2022/09/02 04:55:23;;;;;;;1.60;1.43;;;12.50;99.90;;;;;;5219110;28;20213;-49
2022/09/02 04:57:53;;;;;;;1.17;1.07;;;12.60;99.90;;;;;;5236322;28;20551;-51
2022/09/02 05:00:24;;;;;;;1.60;1.50;;;12.60;99.90;;;;;;5236275;28;20681;-49
2022/09/02 05:02:55;;;;;;;1.50;1.50;;;12.70;99.90;;;;;;5214907;28;20265;-50
2022/09/02 05:05:26;;;;;;;1.50;1.20;;;12.80;99.90;;;;;;5226784;28;20297;-49
2022/09/02 05:07:57;;;;;;;1.40;1.30;;;12.90;99.90;;;;;;5233192;28;20177;-48
2022/09/02 05:10:27;;;;;;;1.27;1.27;;;13.00;99.90;;;;;;5239118;28;20612;-50
2022/09/02 05:13:02;;;;;;;1.20;1.20;;;13.10;99.90;;;;;;5220465;28;20522;-49
2022/09/02 05:15:36;;;;;;;1.37;1.27;;;13.20;99.90;;;;;;5239519;28;20343;-50
2022/09/02 05:18:07;;;;;;;2.40;1.60;;;13.40;99.90;;;;;;5231708;28;20454;-50
2022/09/02 05:20:44;;;;;;;2.90;1.70;;;13.50;99.90;;;;;;5232949;28;20468;-51
2022/09/02 05:23:14;;;;;;;1.47;1.37;;;13.50;99.90;;;;;;5222784;28;20851;-49
2022/09/02 05:25:45;;;;;;;5.33;1.90;;;13.50;99.90;;;;;;5237002;28;20476;-48
2022/09/02 05:28:16;;;;;;;2.00;1.30;;;13.50;99.90;;;;;;5238978;28;20285;-50
2022/09/02 05:30:47;;;;;;;1.53;1.43;;;13.60;99.90;;;;;;5219330;28;20960;-49
2022/09/02 05:33:17;;;;;;;1.37;1.37;;;13.70;99.90;;;;;;5232855;28;20197;-49
2022/09/02 05:35:48;;;;;;;2.70;1.60;;;13.80;99.90;;;;;;5234349;28;20675;-48
2022/09/02 05:38:19;;;;;;;1.60;1.50;;;14.00;99.90;;;;;;5234454;28;20185;-48
2022/09/02 05:40:50;;;;;;;1.23;1.23;;;14.20;99.90;;;;;;5229703;28;20464;-50
2022/09/02 05:43:21;;;;;;;1.43;1.40;;;14.30;99.90;;;;;;5234757;28;20522;-52
2022/09/02 05:45:52;;;;;;;1.60;1.50;;;14.50;99.90;;;;;;5233695;28;20982;-50
2022/09/02 05:51:12;;;;;;;2.03;1.70;;;14.70;99.90;;;;;;5237706;28;20252;-48
2022/09/02 05:53:42;;;;;;;2.73;1.90;;;14.80;99.90;;;;;;5225829;28;20441;-49
2022/09/02 05:56:13;;;;;;;4.63;1.60;;;14.80;99.90;;;;;;5231685;28;20241;-51
2022/09/02 05:58:44;;;;;;;5.63;1.20;;;14.80;99.90;;;;;;5223440;28;20662;-50
2022/09/02 06:01:16;;;;;;;3.53;1.97;;;14.90;99.90;;;;;;5223198;28;20498;-49
2022/09/02 06:03:47;;;;;;;1.80;1.60;;;15.10;99.90;;;;;;5230702;28;20179;-50
2022/09/02 06:06:20;;;;;;;2.77;1.40;;;15.20;99.90;;;;;;5230126;28;20525;-48
2022/09/02 06:08:50;;;;;;;2.13;2.00;;;15.30;99.90;;;;;;5236891;28;20653;-50
2022/09/02 06:11:21;;;;;;;1.60;1.43;;;15.40;99.90;;;;;;5240870;28;20439;-49
2022/09/02 06:13:53;;;;;;;3.50;1.37;;;15.40;99.90;;;;;;5224818;28;20779;-49
2022/09/02 06:16:25;;;;;;;1.60;1.50;;;15.50;99.90;;;;;;5234969;28;20554;-50
2022/09/02 06:18:55;;;;;;;4.13;1.70;;;15.60;99.90;;;;;;5231374;28;20788;-52
2022/09/02 06:21:26;;;;;;;1.17;1.00;;;15.60;99.90;;;;;;5240610;28;20429;-51
2022/09/02 06:23:57;;;;;;;9.03;1.67;;;15.70;99.90;;;;;;5242130;28;20269;-49
2022/09/02 06:26:28;;;;;;;1.70;1.60;;;15.70;99.90;;;;;;5227757;28;20206;-49
2022/09/02 06:28:58;;;;;;;2.00;1.90;;;15.80;99.90;;;;;;5224795;28;20506;-50
2022/09/02 06:31:29;;;;;;;1.27;1.20;;;15.90;99.90;;;;;;5241527;28;20178;-49
2022/09/02 06:34:00;;;;;;;1.80;1.70;;;16.10;99.90;;;;;;5225934;28;20229;-49
2022/09/02 06:36:31;;;;;;;2.67;2.30;;;16.50;99.90;;;;;;5235893;28;20640;-49
2022/09/02 06:39:01;;;;;;;1.63;1.63;;;16.80;99.90;;;;;;5242574;28;20461;-48
2022/09/02 06:41:33;;;;;;;1.50;1.40;;;17.10;99.90;;;;;;5243639;28;21509;-50
2022/09/02 06:44:05;;;;;;;1.67;1.47;;;17.60;99.90;;;;;;5229929;28;20313;-49
2022/09/02 06:46:46;;;;;;;2.43;1.67;;;18.80;99.90;;;;;;5238761;28;20535;-49
2022/09/02 06:49:16;;;;;;;1.57;1.37;;;21.10;89.00;;;;;;5242525;28;20465;-52
2022/09/02 06:51:48;;;;;;;8.70;1.87;;;21.00;81.40;;;;;;5228885;28;20494;-49
2022/09/02 06:54:20;;;;;;;5.80;1.80;;;20.90;77.90;;;;;;5225626;28;20193;-50
2022/09/02 06:56:51;;;;;;;5.17;1.80;;;21.00;76.30;;;;;;5240455;28;20436;-51
2022/09/02 06:59:22;;;;;;;5.43;2.03;;;21.50;75.50;;;;;;5225543;28;20456;-49
2022/09/02 07:01:53;;;;;;;9.17;2.30;;;23.40;65.70;;;;;;5237770;28;21255;-49
2022/09/02 07:07:12;;;;;;;4.00;1.40;;;26.50;50.90;;;;;;5236295;28;20328;-49
2022/09/02 07:09:43;;;;;;;4.63;1.60;;;26.90;48.70;;;;;;5221223;28;20524;-49
2022/09/02 07:12:15;;;;;;;1.40;1.30;;;27.70;46.50;;;;;;5222438;28;20356;-49
2022/09/02 07:14:46;;;;;;;3.13;1.87;;;28.30;44.00;;;;;;5230536;28;20244;-48
2022/09/02 07:17:20;;;;;;;2.43;1.47;;;28.00;43.50;;;;;;5217635;28;20438;-49
2022/09/02 07:19:54;;;;;;;1.23;1.23;;;28.60;43.20;;;;;;5246095;28;20205;-50
2022/09/02 07:22:26;;;;;;;3.30;1.20;;;28.50;41.70;;;;;;5223559;28;20831;-50
2022/09/02 07:24:57;;;;;;;2.50;1.20;;;28.60;42.00;;;;;;5224024;28;20804;-50
2022/09/02 07:27:28;;;;;;;1.60;1.50;;;28.80;41.20;;;;;;5236152;28;20452;-50
2022/09/02 07:29:58;;;;;;;4.00;1.63;;;28.60;41.30;;;;;;5241416;28;20674;-50
2022/09/02 07:32:30;;;;;;;1.20;1.20;;;28.40;41.90;;;;;;5237604;28;20233;-50
2022/09/02 07:35:02;;;;;;;1.23;1.23;;;29.10;41.00;;;;;;5238451;28;20213;-49
2022/09/02 07:37:33;;;;;;;1.83;1.73;;;29.80;39.80;;;;;;5244274;28;20546;-49
2022/09/02 07:40:06;;;;;;;1.27;1.17;;;29.70;38.60;;;;;;5238283;28;20476;-48
2022/09/02 07:42:37;;;;;;;2.00;1.40;;;29.10;39.30;;;;;;5241343;28;20445;-50
2022/09/02 07:45:09;;;;;;;3.07;1.47;;;29.00;40.00;;;;;;5240525;28;20453;-49
2022/09/02 07:47:40;;;;;;;1.80;1.70;;;29.60;39.70;;;;;;5237729;28;20268;-49
2022/09/02 07:50:12;;;;;;;4.00;1.70;;;29.60;39.00;;;;;;5236548;28;20449;-49
2022/09/02 07:52:42;;;;;;;4.10;1.57;;;29.30;39.50;;;;;;5234830;28;20183;-50
2022/09/02 07:55:13;;;;;;;4.87;1.13;;;28.90;39.10;;;;;;5243090;28;20502;-48
2022/09/02 07:57:44;;;;;;;6.60;1.30;;;28.40;40.60;;;;;;5234775;28;20191;-50
2022/09/02 08:00:18;;;;;;;1.70;1.20;;;28.60;40.30;;;;;;5230956;28;20263;-50
2022/09/02 08:02:48;;;;;;;2.30;1.27;;;29.00;39.80;;;;;;5214682;28;20949;-50
2022/09/02 08:05:20;;;;;;;1.47;1.27;;;29.50;39.50;;;;;;5232093;28;20506;-48
2022/09/02 08:07:51;;;;;;;2.50;1.23;;;30.20;38.40;;;;;;5236497;28;20189;-49
2022/09/02 08:10:25;;;;;;;6.03;1.40;;;30.90;37.20;;;;;;5228763;28;20445;-49
2022/09/02 08:12:59;;;;;;;4.30;1.50;;;31.90;36.70;;;;;;5235335;28;20197;-49
2022/09/02 08:15:30;;;;;;;1.10;1.10;;;31.80;35.40;;;;;;5235880;28;20943;-49
2022/09/02 08:18:02;;;;;;;1.80;1.70;;;31.50;36.50;;;;;;5236819;28;20456;-48
2022/09/02 08:20:33;;;;;;;1.47;1.27;;;30.80;37.30;;;;;;5231905;28;20483;-49
2022/09/02 08:23:05;;;;;;;5.33;1.20;;;30.10;38.40;;;;;;5230610;28;20499;-50
2022/09/02 08:25:36;;;;;;;4.23;1.30;;;28.80;39.70;;;;;;5247152;28;20808;-51
2022/09/02 08:28:07;;;;;;;9.20;1.27;;;27.60;42.20;;;;;;5230358;28;20437;-49
2022/09/02 08:30:38;;;;;;;2.13;1.17;;;26.60;43.90;;;;;;5240485;28;20441;-49
2022/09/02 08:33:08;;;;;;;0.73;0.73;;;25.30;46.30;;;;;;5242768;28;20236;-52
2022/09/02 08:35:39;;;;;;;1.90;0.83;;;24.00;46.80;;;;;;5245238;28;20281;-49
2022/09/02 08:38:09;;;;;;;1.30;1.30;;;23.10;49.50;;;;;;5227346;28;20182;-50
2022/09/02 08:40:43;;;;;;;1.60;0.80;;;22.50;50.80;;;;;;5240561;28;20662;-49
2022/09/02 08:43:39;;;;;;;5.50;1.23;;;22.10;51.80;;;;;;5242919;28;20178;-49
2022/09/02 08:46:15;;;;;;;0.70;0.70;;;21.30;53.70;;;;;;5240750;28;20898;-49
2022/09/02 08:48:54;;;;;;;1.87;1.27;;;21.10;55.10;;;;;;5231110;28;20435;-48
2022/09/02 08:51:36;;;;;;;0.77;0.77;;;20.70;55.80;;;;;;5247114;28;20490;-49
2022/09/02 08:54:21;;;;;;;1.30;1.30;;;20.40;56.60;;;;;;5233752;28;20428;-50
2022/09/02 08:56:55;;;;;;;1.13;1.03;;;20.20;57.20;;;;;;5241618;28;20464;-48
2022/09/02 08:59:27;;;;;;;0.77;0.77;;;20.10;58.00;;;;;;5237928;28;20468;-48
2022/09/02 09:02:35;;;;;;;0.70;0.70;;;20.10;57.40;;;;;;5221172;28;20436;-50
2022/09/02 09:05:32;;;;;;;7.80;1.30;;;20.20;56.70;;;;;;5242365;28;20458;-50
2022/09/02 09:08:15;;;;;;;0.80;0.80;;;19.90;56.40;;;;;;5238753;28;20452;-46
2022/09/02 09:10:58;;;;;;;1.80;0.93;;;19.80;56.60;;;;;;5229605;28;20958;-48
2022/09/02 09:14:11;;;;;;;1.80;0.90;;;19.90;58.00;;;;;;5230284;28;20448;-49
2022/09/02 09:16:58;;;;;;;3.13;0.83;;;20.00;57.00;;;;;;5174522;28;20824;-48
2022/09/02 09:19:47;;;;;;;0.63;0.40;;;20.00;56.50;;;;;;5234753;28;20465;-47
2022/09/02 09:22:21;;;;;;;0.40;0.40;;;19.90;52.10;;;;;;5233374;28;20447;-53
2022/09/02 09:24:51;;;;;;;0.70;0.70;;;19.80;53.50;;;;;;5240879;28;20448;-52
2022/09/02 09:27:22;;;;;;;0.67;0.60;;;19.80;53.20;;;;;;5238653;28;20492;-52
2022/09/02 09:29:53;;;;;;;0.60;0.60;;;19.90;53.20;;;;;;5237436;28;20592;-53
2022/09/02 09:32:48;;;;;;;7.50;0.97;;;19.80;53.50;;;;;;5242668;28;20509;-52
2022/09/02 09:35:19;;;;;;;1.00;0.90;;;19.80;53.70;;;;;;5234586;28;20260;-52
2022/09/02 09:37:51;;;;;;;1.67;0.63;;;19.90;54.00;;;;;;5225624;28;20464;-52
2022/09/02 09:40:26;;;;;;;0.97;0.97;;;20.00;53.60;;;;;;5215164;28;20472;-53
2022/09/02 09:43:05;;;;;;;0.97;0.83;;;19.90;53.40;;;;;;5208344;28;20432;-52
2022/09/02 09:45:41;;;;;;;4.77;0.83;;;20.00;52.80;;;;;;5248902;28;20951;-53
2022/09/02 09:48:15;;;;;;;1.00;0.90;;;19.90;52.10;;;;;;5225394;28;20805;-53
2022/09/02 09:50:48;;;;;;;0.70;0.70;;;19.90;52.60;;;;;;5244030;28;20450;-53
2022/09/02 09:53:22;;;;;;;0.60;0.60;;;19.90;52.90;;;;;;5245192;28;20527;-50
2022/09/02 09:56:04;;;;;;;1.83;0.40;;;20.00;52.30;;;;;;5240283;28;20471;-53
2022/09/02 09:58:40;;;;;;;1.37;0.83;;;20.20;51.90;;;;;;5224346;28;20436;-49
2022/09/02 10:01:27;;;;;;;2.50;0.90;;;20.20;51.80;;;;;;5245095;28;20471;-50
2022/09/02 10:04:21;;;;;;;4.43;0.80;;;20.30;52.90;;;;;;5233534;28;20439;-49
2022/09/02 10:06:51;;;;;;;2.53;0.80;;;20.40;53.30;;;;;;5236484;28;20467;-51
2022/09/02 10:09:33;;;;;;;0.60;0.60;;;20.40;53.40;;;;;;5240984;28;20443;-50
2022/09/02 10:12:10;;;;;;;0.60;0.60;;;20.50;52.70;;;;;;5248704;28;20208;-50
2022/09/02 10:14:48;;;;;;;0.67;0.67;;;20.50;52.50;;;;;;5222089;28;20466;-50
2022/09/02 10:17:29;;;;;;;0.60;0.60;;;20.50;50.20;;;;;;5217276;28;20440;-52
2022/09/02 10:20:18;;;;;;;1.03;1.03;;;20.50;49.90;;;;;;5245655;28;20471;-50
2022/09/02 10:23:14;;;;;;;4.80;0.60;;;20.20;50.50;;;;;;5218135;28;20440;-51
2022/09/02 10:26:18;;;;;;;1.87;0.70;;;20.20;51.20;;;;;;5243169;28;20448;-49
2022/09/02 10:28:49;;;;;;;0.87;0.60;;;20.20;51.50;;;;;;5250119;28;20427;-50
2022/09/02 10:31:52;;;;;;;1.03;0.60;;;20.20;50.70;;;;;;5247258;28;20452;-48
2022/09/02 10:34:47;;;;;;;0.87;0.87;;;20.20;50.70;;;;;;5220851;28;20789;-48
2022/09/02 10:37:23;;;;;;;2.83;1.63;;;20.20;50.00;;;;;;5223815;28;20826;-49
2022/09/02 10:40:16;;;;;;;4.90;1.10;;;20.10;50.40;;;;;;5231278;28;20990;-50
2022/09/02 10:43:06;;;;;;;0.77;0.77;;;20.00;51.70;;;;;;5223417;28;20445;-48
2022/09/02 10:45:44;;;;;;;0.90;0.90;;;19.80;50.90;;;;;;5232253;28;20531;-49
2022/09/02 10:48:23;;;;;;;7.80;0.93;;;19.70;50.40;;;;;;5239328;28;20519;-50
2022/09/02 10:50:59;;;;;;;3.00;0.80;;;19.70;51.40;;;;;;5232440;28;20432;-49
2022/09/02 10:53:49;;;;;;;0.70;0.70;;;19.70;50.80;;;;;;5234576;28;20519;-49
2022/09/02 10:56:24;;;;;;;0.60;0.60;;;19.70;50.70;;;;;;5237089;28;20549;-49
2022/09/02 10:59:04;;;;;;;1.00;1.00;;;19.80;50.40;;;;;;5231358;28;20428;-50
2022/09/02 11:01:45;;;;;;;0.70;0.70;;;20.00;50.30;;;;;;5241745;28;20787;-50
2022/09/02 11:04:26;;;;;;;0.90;0.70;;;20.20;49.70;;;;;;5236742;28;20417;-50
2022/09/02 11:06:59;;;;;;;4.37;0.93;;;20.30;49.00;;;;;;5218291;28;20475;-50
2022/09/02 11:09:44;;;;;;;1.03;0.80;;;20.20;49.60;;;;;;5228187;28;20441;-51
2022/09/02 11:12:21;;;;;;;1.17;1.17;;;20.20;49.60;;;;;;5244681;28;20448;-49
2022/09/02 11:15:11;;;;;;;0.93;0.93;;;20.30;50.20;;;;;;5236910;28;20467;-50
2022/09/02 11:17:58;;;;;;;0.70;0.70;;;20.60;46.80;;;;;;5242449;28;20448;-49
2022/09/02 11:20:33;;;;;;;0.80;0.80;;;20.60;45.60;;;;;;5228765;28;20463;-50
2022/09/02 11:23:26;;;;;;;0.97;0.87;;;20.80;44.90;;;;;;5229929;28;20435;-51
2022/09/02 11:26:06;;;;;;;1.17;0.97;;;20.90;45.50;;;;;;5245520;28;20444;-48
2022/09/02 11:28:43;;;;;;;1.00;1.00;;;21.00;47.20;;;;;;5244053;28;20584;-48
2022/09/02 11:31:30;;;;;;;1.30;0.80;;;21.10;47.40;;;;;;5228776;28;20440;-50
2022/09/02 11:34:13;;;;;;;1.17;1.07;;;21.20;47.90;;;;;;5239166;28;20442;-48
2022/09/02 11:36:44;;;;;;;8.67;1.10;;;21.00;48.90;;;;;;5246051;28;20913;-46
2022/09/02 11:39:18;;;;;;;4.20;1.13;;;21.00;49.40;;;;;;5239448;28;20452;-47
2022/09/02 11:42:07;;;;;;;2.93;0.87;;;21.10;49.40;;;;;;5228551;28;20531;-46
2022/09/02 11:45:02;;;;;;;2.40;1.10;;;21.10;48.70;;;;;;5234590;28;20460;-47
2022/09/02 11:47:45;;;;;;;2.50;1.50;;;21.10;49.00;;;;;;5237245;28;20425;-50
2022/09/02 11:51:05;;;;;;;0.60;0.60;;;21.30;47.90;;;;;;5247750;28;20776;-47
2022/09/02 11:53:39;;;;;;;0.60;0.60;;;21.40;47.60;;;;;;5249718;28;20947;-47
2022/09/02 11:56:18;;;;;;;2.43;1.00;;;21.60;46.70;;;;;;5230115;28;20468;-47
2022/09/02 11:58:52;;;;;;;0.80;0.80;;;21.70;46.40;;;;;;5241217;28;20436;-49
2022/09/02 12:01:28;;;;;;;0.90;0.90;;;21.80;46.30;;;;;;5244627;28;20461;-47
2022/09/02 12:04:11;;;;;;;0.93;0.93;;;21.80;44.90;;;;;;5247319;28;20916;-48
2022/09/02 12:07:07;;;;;;;1.97;0.90;;;21.80;44.00;;;;;;5238111;28;20937;-47
2022/09/02 12:09:56;;;;;;;1.40;1.13;;;22.00;44.20;;;;;;5229867;28;20803;-50
2022/09/02 12:12:35;;;;;;;0.80;0.80;;;22.20;43.50;;;;;;5236919;28;20437;-48
2022/09/02 12:15:17;;;;;;;3.80;0.63;;;22.40;43.10;;;;;;5239612;28;20572;-48
2022/09/02 12:17:50;;;;;;;1.03;0.80;;;22.40;42.90;;;;;;5241355;28;20441;-49
2022/09/02 12:20:40;;;;;;;1.23;0.80;;;22.30;43.20;;;;;;5226529;28;20899;-52
2022/09/02 12:23:47;;;;;;;1.83;1.37;;;22.30;44.40;;;;;;5245613;28;20428;-47
2022/09/02 12:26:22;;;;;;;1.50;0.60;;;22.60;44.70;;;;;;5227017;28;20456;-47
2022/09/02 12:29:32;;;;;;;1.03;0.90;;;22.90;43.50;;;;;;5229767;28;20528;-51
2022/09/02 12:32:04;;;;;;;0.73;0.73;;;22.90;43.30;;;;;;5206623;28;20769;-48
2022/09/02 12:34:34;;;;;;;3.07;0.90;;;23.10;42.70;;;;;;5229690;28;20967;-49
2022/09/02 12:37:05;;;;;;;1.63;1.53;;;23.10;42.50;;;;;;5243599;28;20445;-53
2022/09/02 12:39:36;;;;;;;0.97;0.80;;;23.10;42.80;;;;;;5229155;28;20202;-52
2022/09/02 12:42:06;;;;;;;1.00;0.90;;;23.20;43.10;;;;;;5246424;28;20210;-48
2022/09/02 12:45:02;;;;;;;1.10;1.00;;;23.10;42.90;;;;;;5240291;28;20297;-48
2022/09/02 12:47:47;;;;;;;1.57;0.77;;;23.00;42.70;;;;;;5244655;28;20183;-52
2022/09/02 12:50:22;;;;;;;1.73;1.10;;;22.80;43.00;;;;;;5228851;28;20440;-49
2022/09/02 12:53:23;;;;;;;0.67;0.67;;;22.60;43.20;;;;;;5221177;28;20439;-48
2022/09/02 12:56:17;;;;;;;8.60;1.17;;;22.20;43.90;;;;;;5226534;28;20517;-51
2022/09/02 12:58:51;;;;;;;2.30;1.10;;;22.00;44.60;;;;;;5224808;28;20468;-47
2022/09/02 13:01:46;;;;;;;4.43;0.90;;;21.90;45.00;;;;;;5245871;28;20547;-49
2022/09/02 13:04:39;;;;;;;1.60;1.03;;;21.70;45.00;;;;;;5223350;28;20498;-49
2022/09/02 13:07:47;;;;;;;0.67;0.67;;;21.60;45.20;;;;;;5236628;28;20445;-48
2022/09/02 13:10:56;;;;;;;0.63;0.63;;;21.30;45.80;;;;;;5237544;28;20477;-49
2022/09/02 13:13:41;;;;;;;0.70;0.70;;;21.30;45.50;;;;;;5241150;28;20791;-48
2022/09/02 13:16:33;;;;;;;1.17;1.07;;;21.30;45.70;;;;;;5239675;28;20483;-47
2022/09/02 13:19:25;;;;;;;0.93;0.80;;;21.40;45.30;;;;;;5227075;28;20483;-49
2022/09/02 13:22:13;;;;;;;1.07;1.07;;;21.50;45.40;;;;;;5223483;28;20437;-49
2022/09/02 13:24:46;;;;;;;1.20;1.20;;;21.50;44.80;;;;;;5224569;28;20551;-49
2022/09/02 13:27:45;;;;;;;2.63;0.70;;;21.50;45.20;;;;;;5222115;28;20429;-47
2022/09/02 13:30:20;;;;;;;0.97;0.90;;;21.40;45.60;;;;;;5241787;28;20518;-47
2022/09/02 13:32:58;;;;;;;1.43;0.80;;;21.70;44.80;;;;;;5239414;28;20987;-51
2022/09/02 13:35:29;;;;;;;3.17;1.10;;;22.00;44.20;;;;;;5237387;28;20464;-48
2022/09/02 13:38:00;;;;;;;0.70;0.70;;;22.20;44.60;;;;;;5241036;28;20456;-50